Bunker Hill, IL

5:58 AM CST on December 18, 2014 (GMT -0600)
Lambert-Saint Louis International | Change Station
CLOSE
Current Station
Airport
Location: St. Louis,
Elevation: 564 ft
Nearby Weather Stations

Elev 564 ft 38.75 °N, 90.37 °W | Updated 7 minutes ago

Overcast
Overcast
30 °F
Feels Like 30 °F
N
0
Wind Variable Wind from North

Today
High -- | Low -- °F
--% Chance of Precip.
Yesterday
High -- | Low -- °F
Precip. -- in
7:13 AM 4:39 PM
Waning Crescent, 15% visible
Pressure 30.32 in
Visibility 9.0 miles
Clouds Few 1200 ft
Overcast 6000 ft
Dew Point 23 °F
Humidity 75%
Rainfall 0.00 in
Snow Depth Not available.
UV 0 out of 12
Pollen 1.80 out of 12
Air Quality Not available.
Flu Activity Not available.
METAR KSTL 181151Z 00000KT 9SM -SN FEW012 OVC060 M01/M05 A3029 RMK AO2 SLP266 P0000 60000 T10111050 11006 21011 55000

More Conditions Fewer Conditions

Pressure 30.32 in
Visibility 9.0 miles
Clouds Few 1200 ft
Overcast 6000 ft
Dew Point 23 °F
Humidity 75%
Rainfall 0.00 in
Snow Depth Not available.
UV 0 out of 12
Pollen 1.80 out of 12
Air Quality Not available.
Flu Activity Not available.
METAR KSTL 181151Z 00000KT 9SM -SN FEW012 OVC060 M01/M05 A3029 RMK AO2 SLP266 P0000 60000 T10111050 11006 21011 55000

More Conditions Fewer Conditions

10-Day Weather Forecast

Almanac

Astronomy

Dec. 18, 2014 Rise Set
Actual Time
Civil Twilight
Nautical Twilight
Astronomical Twilight
Moon
Length of Visible Light
Length of Day
Tomorrow will be .
, % of the Moon is Illuminated

Today's Extremes

State Highs State Lows

Community

WunderPhotos

Upload Photos

1,778,919 photos uploaded!

WunderBlogs® & News

Nearby

Air Quality

  Air Quality AQ Index Pollutant
Not available.

Snow Depth

Station Depth Elevation

Earthquake Activity

City Distance Mag. Time & Date
Minimum magnitude displayed is 2.5.

Coastal Water Temperatures

Place Temperature

Nearby Weather Stations